Scott City, KS (67871)

6:55 PM CST on February 13, 2016 (GMT -0600)
NonFedAWOS | | Change Station
CLOSE
Current Station
Personal Weather Station
Location: Scott City, KS
Elevation: 2962 ft
Nearby Weather Stations

Elev 2962 ft 38.47 °N, 100.89 °W | Updated 58 minutes ago

Partly Cloudy
Partly Cloudy
37 °F
Feels Like 30 °F
N
10
Wind Variable Wind from NE
Gusts 0.0 mph

Today
High -- | Low -- °F
--% Chance of Precip.
Yesterday
High -- | Low -- °F
Precip. -- in
Pressure 30.00 in
Visibility 10.0 miles
Clouds Clear
Windchill 30 °F
Dew Point 27 °F
Humidity 65%
Rainfall in
Snow Depth Not available.
7:37 AM 6:18 PM
Waxing Crescent, 36% visible
METAR KGCK 132354Z 11010KT 10SM CLR 09/M02 A2996 RMK AO2 SLP158 T00891017 10117 20000 55014
Pressure 30.00 in
Visibility 10.0 miles
Clouds Clear
Windchill 30 °F
Dew Point 27 °F
Humidity 65%
Rainfall in
Snow Depth Not available.
7:37 AM 6:18 PM
Waxing Crescent, 36% visible
METAR KGCK 132354Z 11010KT 10SM CLR 09/M02 A2996 RMK AO2 SLP158 T00891017 10117 20000 55014

10-Day Weather Forecast

Almanac

Astronomy

Feb. 13, 2016 Rise Set
Actual Time
Civil Twilight
Nautical Twilight
Astronomical Twilight
Moon
Length of Visible Light
Length of Day
Tomorrow will be .
, % of the Moon is Illuminated

Today's Extremes

State Highs State Lows

Community

WunderPhotos

Upload Photos

1,892,715 photos uploaded!

WunderBlog® & News

Nearby

Air Quality

  Air Quality AQ Index Pollutant
Not available.

Snow Depth

Station Depth Elevation

Earthquake Activity

City Distance Mag. Time & Date
Minimum magnitude displayed is 2.5.

Coastal Water Temperatures

Place Temperature

Stations

Nearby Weather Stations

Station Location Temp. Windchill Dew Point Humidity Wind Precip. Elev Updated Type
                   

Watches & Warnings

There are currently no watches in effect.